createdAt,value
2018-07-27T00:01:13.018Z,99.90
2018-07-27T00:03:49.250Z,99.90
2018-07-27T00:06:23.890Z,99.90
2018-07-27T00:08:58.835Z,99.90
2018-07-27T00:11:33.729Z,99.90
2018-07-27T00:14:08.628Z,99.90
2018-07-27T00:16:43.501Z,99.90
2018-07-27T00:19:18.354Z,99.90
2018-07-27T00:21:53.217Z,99.90
2018-07-27T00:24:28.031Z,99.90
2018-07-27T00:27:02.875Z,99.90
2018-07-27T00:29:37.422Z,99.90
2018-07-27T00:32:12.010Z,99.90
2018-07-27T00:34:47.437Z,99.90
2018-07-27T00:37:22.072Z,99.90
2018-07-27T00:39:56.538Z,99.90
2018-07-27T00:42:31.364Z,99.90
2018-07-27T00:45:06.409Z,99.90
2018-07-27T00:47:42.008Z,99.90
2018-07-27T00:50:16.497Z,99.90
2018-07-27T00:52:52.570Z,99.90
2018-07-27T00:55:28.789Z,99.90
2018-07-27T00:58:04.141Z,99.90
2018-07-27T01:00:39.965Z,99.90
2018-07-27T01:03:14.688Z,99.90
2018-07-27T01:05:49.237Z,99.90
2018-07-27T01:08:26.186Z,99.90
2018-07-27T01:11:00.951Z,99.90
2018-07-27T01:13:35.609Z,99.90
2018-07-27T01:16:10.184Z,99.90
2018-07-27T01:18:44.852Z,99.90
2018-07-27T01:21:19.534Z,99.90
2018-07-27T01:23:54.296Z,99.90
2018-07-27T01:26:28.795Z,99.90
2018-07-27T01:29:03.533Z,99.90
2018-07-27T01:31:38.220Z,99.90
2018-07-27T01:34:13.141Z,99.90
2018-07-27T01:36:50.549Z,99.90
2018-07-27T01:39:26.595Z,99.90
2018-07-27T01:42:02.601Z,99.90
2018-07-27T01:44:37.283Z,99.90
2018-07-27T01:49:46.598Z,99.90
2018-07-27T01:52:21.319Z,99.90
2018-07-27T01:54:55.973Z,99.90
2018-07-27T01:57:30.509Z,99.90
2018-07-27T02:00:06.606Z,99.90
2018-07-27T02:02:41.212Z,99.90
2018-07-27T02:05:16.079Z,99.90
2018-07-27T02:07:51.740Z,99.90
2018-07-27T02:10:26.511Z,99.90
2018-07-27T02:13:01.182Z,99.90
2018-07-27T02:15:35.791Z,99.90
2018-07-27T02:18:10.661Z,99.90
2018-07-27T02:20:45.280Z,99.90
2018-07-27T02:23:19.993Z,99.90
2018-07-27T02:25:54.489Z,99.90
2018-07-27T02:28:28.971Z,99.90
2018-07-27T02:31:03.512Z,99.90
2018-07-27T02:33:38.334Z,99.90
2018-07-27T02:36:15.529Z,99.90
2018-07-27T02:38:49.999Z,99.90
2018-07-27T02:41:25.310Z,99.90
2018-07-27T02:44:00.382Z,99.90
2018-07-27T02:46:35.098Z,99.90
2018-07-27T02:49:09.817Z,99.90
2018-07-27T02:51:46.072Z,99.90
2018-07-27T02:54:20.630Z,99.90
2018-07-27T02:56:55.134Z,99.90
2018-07-27T02:59:29.970Z,99.90
2018-07-27T03:02:04.671Z,99.90
2018-07-27T03:04:40.290Z,99.90
2018-07-27T03:07:14.940Z,99.90
2018-07-27T03:09:49.805Z,99.90
2018-07-27T03:12:25.719Z,99.90
2018-07-27T03:15:00.426Z,99.90
2018-07-27T03:17:34.897Z,99.90
2018-07-27T03:20:09.748Z,99.90
2018-07-27T03:22:46.031Z,99.90
2018-07-27T03:25:20.774Z,99.90
2018-07-27T03:27:55.358Z,99.90
2018-07-27T03:30:30.101Z,99.90
2018-07-27T03:33:04.860Z,99.90
2018-07-27T03:35:39.598Z,99.90
2018-07-27T03:38:17.617Z,99.90
2018-07-27T03:40:53.638Z,99.90
2018-07-27T03:43:28.186Z,99.90
2018-07-27T03:46:02.794Z,99.90
2018-07-27T03:48:37.323Z,99.90
2018-07-27T03:51:11.785Z,99.90
2018-07-27T03:53:48.257Z,99.90
2018-07-27T03:56:22.956Z,99.90
2018-07-27T03:58:57.618Z,99.90
2018-07-27T04:01:32.321Z,99.90
2018-07-27T04:04:07.055Z,99.90
2018-07-27T04:06:41.595Z,99.90
2018-07-27T04:09:16.327Z,99.90
2018-07-27T04:11:51.056Z,99.90
2018-07-27T04:14:25.743Z,99.90
2018-07-27T04:17:00.234Z,99.90
2018-07-27T04:19:34.796Z,99.90
2018-07-27T04:22:09.372Z,99.90
2018-07-27T04:24:43.856Z,99.90
2018-07-27T04:27:18.501Z,99.90
2018-07-27T04:29:54.561Z,99.90
2018-07-27T04:32:29.340Z,99.90
2018-07-27T04:35:04.073Z,99.90
2018-07-27T04:37:38.614Z,99.90
2018-07-27T04:40:13.309Z,99.90
2018-07-27T04:42:48.291Z,99.90
2018-07-27T04:45:22.966Z,99.90
2018-07-27T04:47:57.667Z,99.90
2018-07-27T04:50:32.420Z,99.90
2018-07-27T04:53:07.220Z,99.90
2018-07-27T04:55:41.728Z,99.90
2018-07-27T04:58:16.367Z,99.90
2018-07-27T05:00:50.871Z,99.90
2018-07-27T05:03:25.406Z,99.90
2018-07-27T05:06:00.891Z,99.90
2018-07-27T05:09:39.387Z,99.90
2018-07-27T05:12:14.130Z,99.90
2018-07-27T05:14:49.479Z,99.90
2018-07-27T05:17:25.393Z,99.90
2018-07-27T05:20:00.097Z,99.90
2018-07-27T05:22:35.305Z,99.90
2018-07-27T05:25:10.777Z,99.90
2018-07-27T05:27:45.506Z,99.90
2018-07-27T05:30:20.624Z,99.90
2018-07-27T05:32:55.021Z,99.90
2018-07-27T05:35:29.465Z,99.90
2018-07-27T05:38:04.712Z,99.90
2018-07-27T05:40:40.526Z,99.90
2018-07-27T05:43:21.304Z,99.90
2018-07-27T05:45:57.540Z,99.90
2018-07-27T05:48:32.102Z,99.90
2018-07-27T05:51:06.721Z,99.90
2018-07-27T05:53:43.171Z,99.90
2018-07-27T05:56:17.791Z,99.90
2018-07-27T05:58:53.026Z,99.90
2018-07-27T06:01:27.667Z,99.90
2018-07-27T06:04:02.998Z,99.90
2018-07-27T06:06:37.572Z,99.90
2018-07-27T06:09:12.165Z,99.90
2018-07-27T06:11:46.749Z,99.90
2018-07-27T06:14:21.483Z,99.90
2018-07-27T06:16:56.425Z,99.90
2018-07-27T06:19:31.884Z,99.90
2018-07-27T06:22:06.555Z,99.90
2018-07-27T06:24:51.181Z,99.90
2018-07-27T06:27:26.187Z,99.90
2018-07-27T06:30:00.860Z,99.90
2018-07-27T06:32:35.486Z,99.90
2018-07-27T06:35:10.091Z,99.90
2018-07-27T06:37:44.607Z,99.90
2018-07-27T06:40:21.394Z,99.90
2018-07-27T06:42:56.142Z,99.90
2018-07-27T06:45:31.312Z,99.90
2018-07-27T06:48:07.275Z,99.90
2018-07-27T06:50:41.797Z,99.90
2018-07-27T06:53:16.391Z,99.90
2018-07-27T06:55:54.339Z,99.90
2018-07-27T06:58:29.787Z,99.90
2018-07-27T07:01:04.548Z,99.90
2018-07-27T07:03:40.815Z,99.90
2018-07-27T07:06:15.426Z,99.90
2018-07-27T07:08:49.840Z,99.90
2018-07-27T07:11:24.334Z,99.90
2018-07-27T07:13:59.754Z,99.90
2018-07-27T07:16:35.404Z,99.90
2018-07-27T07:19:10.762Z,99.90
2018-07-27T07:21:47.333Z,99.90
2018-07-27T07:24:24.281Z,99.90
2018-07-27T07:26:59.756Z,99.90
2018-07-27T07:29:34.353Z,99.90
2018-07-27T07:32:09.039Z,99.90
2018-07-27T07:34:43.812Z,99.90
2018-07-27T07:37:18.662Z,99.90
2018-07-27T07:42:27.813Z,99.90
2018-07-27T07:45:04.313Z,99.90
2018-07-27T07:47:40.745Z,99.90
2018-07-27T07:50:15.397Z,99.90
2018-07-27T07:52:50.362Z,99.90
2018-07-27T07:55:24.961Z,99.90
2018-07-27T07:57:59.484Z,99.90
2018-07-27T08:00:34.318Z,99.90
2018-07-27T08:03:08.903Z,99.90
2018-07-27T08:05:43.513Z,99.90
2018-07-27T08:08:18.104Z,99.90
2018-07-27T08:10:52.857Z,99.90
2018-07-27T08:13:27.510Z,99.90
2018-07-27T08:16:02.155Z,99.90
2018-07-27T08:18:36.670Z,99.90
2018-07-27T08:21:11.249Z,99.90
2018-07-27T08:23:45.975Z,99.90
2018-07-27T08:26:46.595Z,99.90
2018-07-27T08:29:23.277Z,99.90
2018-07-27T08:31:58.196Z,99.90
2018-07-27T08:34:35.002Z,99.90
2018-07-27T08:37:11.618Z,99.90
2018-07-27T08:42:21.026Z,99.90
2018-07-27T08:44:57.163Z,99.40
2018-07-27T08:47:34.094Z,99.40
2018-07-27T08:50:08.881Z,99.10
2018-07-27T08:52:44.156Z,99.40
2018-07-27T08:55:22.745Z,98.90
2018-07-27T08:57:57.192Z,98.80
2018-07-27T09:00:43.233Z,99.60
2018-07-27T09:03:19.476Z,98.30
2018-07-27T09:05:53.986Z,97.20
2018-07-27T09:08:28.377Z,97.00
2018-07-27T09:11:04.699Z,97.70
2018-07-27T09:13:40.694Z,96.70
2018-07-27T09:16:15.305Z,97.30
2018-07-27T09:18:53.365Z,95.90
2018-07-27T09:21:29.150Z,96.30
2018-07-27T09:24:03.888Z,96.90
2018-07-27T09:26:41.182Z,96.10
2018-07-27T09:29:19.781Z,95.70
2018-07-27T09:31:56.600Z,95.30
2018-07-27T09:34:31.192Z,95.20
2018-07-27T09:37:06.853Z,96.20
2018-07-27T09:39:41.459Z,95.90
2018-07-27T09:42:16.155Z,94.10
2018-07-27T09:44:50.769Z,92.70
2018-07-27T09:47:25.474Z,93.70
2018-07-27T09:50:00.071Z,92.70
2018-07-27T09:52:35.145Z,92.40
2018-07-27T09:55:10.523Z,92.90
2018-07-27T09:57:45.594Z,92.80
2018-07-27T10:00:25.341Z,91.60
2018-07-27T10:02:59.823Z,90.30
2018-07-27T10:05:34.586Z,90.10
2018-07-27T10:08:09.916Z,90.70
2018-07-27T10:10:44.440Z,89.30
2018-07-27T10:13:20.979Z,88.50
2018-07-27T10:15:56.149Z,85.70
2018-07-27T10:18:30.693Z,85.30
2018-07-27T10:21:09.689Z,85.50
2018-07-27T10:26:19.941Z,84.30
2018-07-27T10:28:54.744Z,84.90
2018-07-27T10:31:31.073Z,84.10
2018-07-27T10:34:05.725Z,80.10
2018-07-27T10:36:40.050Z,80.90
2018-07-27T10:39:14.461Z,79.10
2018-07-27T10:41:48.933Z,80.10
2018-07-27T10:44:23.643Z,78.60
2018-07-27T10:46:58.033Z,78.80
2018-07-27T10:49:32.580Z,81.20
2018-07-27T10:52:07.177Z,78.30
2018-07-27T10:54:41.659Z,78.00
2018-07-27T10:57:16.104Z,74.70
2018-07-27T10:59:50.834Z,74.60
2018-07-27T11:02:25.454Z,74.50
2018-07-27T11:04:59.962Z,73.30
2018-07-27T11:07:34.566Z,72.40
2018-07-27T11:10:10.496Z,71.50
2018-07-27T11:12:45.066Z,72.20
2018-07-27T11:15:19.511Z,70.30
2018-07-27T11:17:54.150Z,69.20
2018-07-27T11:20:28.842Z,67.20
2018-07-27T11:23:03.478Z,69.50
2018-07-27T11:25:38.059Z,69.30
2018-07-27T11:28:14.233Z,68.10
2018-07-27T11:30:49.055Z,68.10
2018-07-27T11:33:23.825Z,68.60
2018-07-27T11:35:58.504Z,69.50
2018-07-27T11:38:33.139Z,66.90
2018-07-27T11:41:10.545Z,69.40
2018-07-27T11:43:44.843Z,68.60
2018-07-27T11:46:19.388Z,69.70
2018-07-27T11:48:54.031Z,69.20
2018-07-27T11:51:28.634Z,67.80
2018-07-27T11:54:03.142Z,68.30
2018-07-27T11:56:37.907Z,67.40
2018-07-27T11:59:12.429Z,69.00
2018-07-27T12:01:48.011Z,68.80
2018-07-27T12:04:22.574Z,69.00
2018-07-27T12:06:57.831Z,64.60
2018-07-27T12:09:32.623Z,67.10
2018-07-27T12:12:07.315Z,68.20
2018-07-27T12:14:42.275Z,68.20
2018-07-27T12:17:17.067Z,67.20
2018-07-27T12:19:51.315Z,66.70
2018-07-27T12:22:25.839Z,65.90
2018-07-27T12:25:00.421Z,64.40
2018-07-27T12:27:35.078Z,64.40
2018-07-27T12:30:09.746Z,63.10
2018-07-27T12:32:44.273Z,64.40
2018-07-27T12:35:18.864Z,65.00
2018-07-27T12:37:55.607Z,64.80
2018-07-27T12:40:30.017Z,64.60
2018-07-27T12:43:04.650Z,64.10
2018-07-27T12:45:39.189Z,62.20
2018-07-27T12:48:13.747Z,61.50
2018-07-27T12:50:48.341Z,62.00
2018-07-27T12:53:22.825Z,61.90
2018-07-27T12:55:57.532Z,60.70
2018-07-27T12:58:31.983Z,61.30
2018-07-27T13:01:06.636Z,61.60
2018-07-27T13:03:41.382Z,60.60
2018-07-27T13:06:15.926Z,60.90
2018-07-27T13:08:50.341Z,62.50
2018-07-27T13:11:25.521Z,61.00
2018-07-27T13:14:00.156Z,61.00
2018-07-27T13:16:34.657Z,59.30
2018-07-27T13:19:10.509Z,59.70
2018-07-27T13:21:45.273Z,60.60
2018-07-27T13:24:19.721Z,60.60
2018-07-27T13:26:54.405Z,60.70
2018-07-27T13:29:28.894Z,58.60
2018-07-27T13:32:03.283Z,58.50
2018-07-27T13:34:44.429Z,59.80
2018-07-27T13:37:19.948Z,59.60
2018-07-27T13:42:31.569Z,59.10
2018-07-27T13:45:06.045Z,58.70
2018-07-27T13:47:40.401Z,59.20
2018-07-27T13:50:15.083Z,59.80
2018-07-27T13:52:49.658Z,58.50
2018-07-27T13:55:24.066Z,60.40
2018-07-27T13:57:58.740Z,58.50
2018-07-27T14:00:33.254Z,57.70
2018-07-27T14:03:08.105Z,56.30
2018-07-27T14:05:42.784Z,57.40
2018-07-27T14:08:17.390Z,56.40
2018-07-27T14:10:53.428Z,57.60
2018-07-27T14:13:27.923Z,57.70
2018-07-27T14:16:02.619Z,58.30
2018-07-27T14:18:37.028Z,58.60
2018-07-27T14:21:11.556Z,57.20
2018-07-27T14:23:46.580Z,57.30
2018-07-27T14:26:21.714Z,56.60
2018-07-27T14:28:56.164Z,56.40
2018-07-27T14:31:30.740Z,56.10
2018-07-27T14:34:05.474Z,57.00
2018-07-27T14:36:39.803Z,56.30
2018-07-27T14:39:15.623Z,56.50
2018-07-27T14:41:50.040Z,56.00
2018-07-27T14:44:24.850Z,55.70
2018-07-27T14:46:59.370Z,55.20
2018-07-27T14:49:38.637Z,55.70
2018-07-27T14:52:14.474Z,55.20
2018-07-27T14:54:54.614Z,55.60
2018-07-27T14:57:31.888Z,54.70
2018-07-27T15:00:08.195Z,55.20
2018-07-27T15:06:18.534Z,54.40
2018-07-27T15:08:55.887Z,55.20
2018-07-27T15:11:34.888Z,54.50
2018-07-27T15:14:10.451Z,54.60
2018-07-27T15:16:50.059Z,55.30
2018-07-27T15:19:29.714Z,54.00
2018-07-27T15:22:04.977Z,53.60
2018-07-27T15:24:43.838Z,53.30
2018-07-27T15:27:19.184Z,53.20
2018-07-27T15:29:54.958Z,54.80
2018-07-27T15:35:08.919Z,54.50
2018-07-27T15:37:47.075Z,54.70
2018-07-27T15:40:22.581Z,54.30
2018-07-27T15:43:02.277Z,53.00
2018-07-27T15:45:38.346Z,52.60
2018-07-27T15:48:14.385Z,54.70
2018-07-27T15:50:51.385Z,53.70
2018-07-27T15:53:28.700Z,52.30
2018-07-27T15:56:04.632Z,53.30
2018-07-27T15:58:40.071Z,52.70
2018-07-27T16:01:15.615Z,53.30
2018-07-27T16:03:52.072Z,54.20
2018-07-27T16:06:27.303Z,56.90
2018-07-27T16:09:02.341Z,54.10
2018-07-27T16:11:37.431Z,54.00
2018-07-27T16:14:18.278Z,53.70
2018-07-27T16:16:55.621Z,52.30
2018-07-27T16:19:32.515Z,51.10
2018-07-27T16:22:08.044Z,50.60
2018-07-27T16:24:47.147Z,53.20
2018-07-27T16:27:28.909Z,52.40
2018-07-27T16:30:05.749Z,50.40
2018-07-27T16:32:41.856Z,49.70
2018-07-27T16:35:20.382Z,48.30
2018-07-27T16:37:55.636Z,47.70
2018-07-27T16:40:32.106Z,46.20
2018-07-27T16:45:43.707Z,45.30
2018-07-27T16:48:21.151Z,45.70
2018-07-27T16:50:56.525Z,45.90
2018-07-27T16:53:33.629Z,46.20
2018-07-27T16:56:08.295Z,44.90
2018-07-27T16:58:44.561Z,43.80
2018-07-27T17:01:21.216Z,42.20
2018-07-27T17:03:59.397Z,42.40
2018-07-27T17:06:35.324Z,40.50
2018-07-27T17:09:10.971Z,41.40
2018-07-27T17:11:46.527Z,40.70
2018-07-27T17:14:24.227Z,39.60
2018-07-27T17:17:00.852Z,39.30
2018-07-27T17:19:36.497Z,39.20
2018-07-27T17:22:12.673Z,39.00
2018-07-27T17:24:48.215Z,38.40
2018-07-27T17:27:27.443Z,38.80
2018-07-27T17:30:03.417Z,38.50
2018-07-27T17:32:38.672Z,38.60
2018-07-27T17:35:13.658Z,38.70
2018-07-27T17:37:49.176Z,39.50
2018-07-27T17:40:25.182Z,39.40
2018-07-27T17:43:01.833Z,39.90
2018-07-27T17:45:36.685Z,39.40
2018-07-27T17:48:15.511Z,40.20
2018-07-27T17:50:51.070Z,40.80
2018-07-27T17:53:31.213Z,42.40
2018-07-27T17:56:07.305Z,43.90
2018-07-27T17:58:42.394Z,45.20
2018-07-27T18:01:17.479Z,46.10
2018-07-27T18:03:52.994Z,47.20
2018-07-27T18:06:29.705Z,47.50
2018-07-27T18:09:07.838Z,48.20
2018-07-27T18:11:45.025Z,48.90
2018-07-27T18:16:57.126Z,50.10
2018-07-27T18:19:32.549Z,50.20
2018-07-27T18:22:08.369Z,50.30
2018-07-27T18:24:45.140Z,50.50
2018-07-27T18:27:20.071Z,51.00
2018-07-27T18:29:55.124Z,52.40
2018-07-27T18:32:30.624Z,52.10
2018-07-27T18:35:09.204Z,52.60
2018-07-27T18:37:46.300Z,53.00
2018-07-27T18:40:23.007Z,53.00
2018-07-27T18:43:00.123Z,53.10
2018-07-27T18:45:38.032Z,53.40
2018-07-27T18:48:17.787Z,53.80
2018-07-27T18:50:55.189Z,54.20
2018-07-27T18:53:33.487Z,55.00
2018-07-27T18:56:14.102Z,55.50
2018-07-27T18:58:50.840Z,56.10
2018-07-27T19:01:28.908Z,56.70
2018-07-27T19:04:06.124Z,57.20
2018-07-27T19:06:45.906Z,57.80
2018-07-27T19:09:22.195Z,58.40
2018-07-27T19:12:00.788Z,59.10
2018-07-27T19:14:37.448Z,59.80
2018-07-27T19:17:18.451Z,60.00
2018-07-27T19:19:56.792Z,60.90
2018-07-27T19:22:35.432Z,62.10
2018-07-27T19:25:12.080Z,62.90
2018-07-27T19:27:48.834Z,64.20
2018-07-27T19:30:25.879Z,64.80
2018-07-27T19:33:08.566Z,66.00
2018-07-27T19:35:44.733Z,66.50
2018-07-27T19:38:25.395Z,67.90
2018-07-27T19:41:01.459Z,68.40
2018-07-27T19:43:38.653Z,69.40
2018-07-27T19:46:15.057Z,70.30
2018-07-27T19:48:51.775Z,71.00
2018-07-27T19:51:27.011Z,72.00
2018-07-27T19:54:06.078Z,72.30
2018-07-27T19:56:54.731Z,72.80
2018-07-27T19:59:35.618Z,73.50
2018-07-27T20:02:12.216Z,74.60
2018-07-27T20:04:53.439Z,76.00
2018-07-27T20:07:31.490Z,78.00
2018-07-27T20:10:08.621Z,78.80
2018-07-27T20:12:46.269Z,80.30
2018-07-27T20:15:26.371Z,80.60
2018-07-27T20:18:04.355Z,81.90
2018-07-27T20:20:40.552Z,83.20
2018-07-27T20:23:20.119Z,83.80
2018-07-27T20:25:57.577Z,84.70
2018-07-27T20:28:34.076Z,88.00
2018-07-27T20:31:09.510Z,92.10
2018-07-27T20:33:52.191Z,94.60
2018-07-27T20:36:28.841Z,94.50
2018-07-27T20:39:14.137Z,94.30
2018-07-27T20:41:49.236Z,94.10
2018-07-27T20:44:26.874Z,94.20
2018-07-27T20:47:01.250Z,93.90
2018-07-27T20:49:35.605Z,93.60
2018-07-27T20:52:10.038Z,94.10
2018-07-27T20:54:44.503Z,94.50
2018-07-27T20:57:18.849Z,94.20
2018-07-27T20:59:53.514Z,94.50
2018-07-27T21:02:27.966Z,94.90
2018-07-27T21:05:02.398Z,95.40
2018-07-27T21:10:11.893Z,96.00
2018-07-27T21:12:47.014Z,96.00
2018-07-27T21:15:21.598Z,96.40
2018-07-27T21:17:56.123Z,96.80
2018-07-27T21:20:30.626Z,97.10
2018-07-27T21:23:05.053Z,96.90
2018-07-27T21:25:39.518Z,97.00
2018-07-27T21:28:13.906Z,97.10
2018-07-27T21:30:48.351Z,97.40
2018-07-27T21:33:23.581Z,97.50
2018-07-27T21:35:58.098Z,98.30
2018-07-27T21:38:32.418Z,98.60
2018-07-27T21:41:06.722Z,98.90
2018-07-27T21:43:41.041Z,98.80
2018-07-27T21:46:15.418Z,99.90
2018-07-27T21:48:49.897Z,99.90
2018-07-27T21:51:24.322Z,99.90
2018-07-27T21:53:58.843Z,99.90
2018-07-27T21:56:33.267Z,99.90
2018-07-27T21:59:07.705Z,99.90
2018-07-27T22:01:42.217Z,99.90
2018-07-27T22:04:16.593Z,99.90
2018-07-27T22:06:51.019Z,99.90
2018-07-27T22:09:26.278Z,99.90
2018-07-27T22:12:00.715Z,99.90
2018-07-27T22:14:36.089Z,99.90
2018-07-27T22:17:10.648Z,99.90
2018-07-27T22:19:45.024Z,99.90
2018-07-27T22:22:25.720Z,99.90
2018-07-27T22:25:00.171Z,99.90
2018-07-27T22:27:34.522Z,99.90
2018-07-27T22:30:09.975Z,99.90
2018-07-27T22:32:44.381Z,99.90
2018-07-27T22:37:53.742Z,99.90
2018-07-27T22:40:28.146Z,99.90
2018-07-27T22:43:02.659Z,99.90
2018-07-27T22:45:37.093Z,99.90
2018-07-27T22:48:11.485Z,99.90
2018-07-27T22:50:45.766Z,99.90
2018-07-27T22:53:20.050Z,99.90
2018-07-27T22:55:54.347Z,99.90
2018-07-27T22:58:28.722Z,99.90
2018-07-27T23:01:03.050Z,99.90
2018-07-27T23:03:37.498Z,99.90
2018-07-27T23:06:11.770Z,99.90
2018-07-27T23:08:46.229Z,99.90
2018-07-27T23:11:20.478Z,99.90
2018-07-27T23:13:54.865Z,99.90
2018-07-27T23:16:29.323Z,99.90
2018-07-27T23:19:03.768Z,99.90
2018-07-27T23:21:38.194Z,99.90
2018-07-27T23:24:12.626Z,99.90
2018-07-27T23:26:47.389Z,99.90
2018-07-27T23:29:21.794Z,99.90
2018-07-27T23:31:56.255Z,99.90
2018-07-27T23:34:30.738Z,99.90
2018-07-27T23:37:05.198Z,99.90
2018-07-27T23:39:39.690Z,99.90
2018-07-27T23:42:14.011Z,99.90
2018-07-27T23:44:48.282Z,99.90
2018-07-27T23:47:22.615Z,99.90
2018-07-27T23:49:56.898Z,99.90
2018-07-27T23:52:31.217Z,99.90
2018-07-27T23:55:05.642Z,99.90
2018-07-27T23:57:40.025Z,99.90
